Time;durP1;ratioP1;P1;durP2;ratioP2;P2;SDS_P1;SDS_P2;PMS_P1;PMS_P2;Temp;Humidity;BMP_temperature;BMP_pressure;BME280_temperature;BME280_humidity;BME280_pressure;Samples;Min_cycle;Max_cycle;Signal;HPM_P1;HPM_P2
2022/11/14 00:01:12;;;;;;;15.93;9.18;;;5.00;99.90;;;;;;5099454;28;20203;-74
2022/11/14 00:03:58;;;;;;;10.88;8.70;;;5.10;99.90;;;;;;5089670;28;20220;-74
2022/11/14 00:06:44;;;;;;;11.13;9.23;;;5.00;99.90;;;;;;5088259;28;20223;-74
2022/11/14 00:09:31;;;;;;;9.45;8.38;;;5.00;99.90;;;;;;5084969;28;20663;-74
2022/11/14 00:12:16;;;;;;;14.60;9.77;;;5.00;99.90;;;;;;5087302;28;20681;-74
2022/11/14 00:15:02;;;;;;;13.57;9.27;;;5.00;99.90;;;;;;5083941;28;20203;-74
2022/11/14 00:17:47;;;;;;;12.60;10.00;;;5.10;99.90;;;;;;5086617;28;20341;-74
2022/11/14 00:20:33;;;;;;;12.82;9.63;;;5.00;99.90;;;;;;5082644;28;20203;-74
2022/11/14 00:23:19;;;;;;;10.35;8.90;;;5.00;99.90;;;;;;5082575;28;20261;-74
2022/11/14 00:26:07;;;;;;;11.30;9.63;;;5.10;99.90;;;;;;5082322;28;20236;-74
2022/11/14 00:28:53;;;;;;;14.02;9.90;;;5.20;99.90;;;;;;5090512;28;20207;-74
2022/11/14 00:31:39;;;;;;;15.02;10.23;;;5.30;99.90;;;;;;5090821;28;20725;-74
2022/11/14 00:34:24;;;;;;;16.52;12.30;;;5.30;99.90;;;;;;5098273;28;20195;-74
2022/11/14 00:37:10;;;;;;;13.13;11.05;;;5.40;99.90;;;;;;5082513;28;20223;-74
2022/11/14 00:39:55;;;;;;;15.57;11.60;;;5.40;99.90;;;;;;5085932;28;20231;-74
2022/11/14 00:42:42;;;;;;;19.38;12.98;;;5.40;99.90;;;;;;5079252;28;20227;-74
2022/11/14 00:45:28;;;;;;;19.95;12.40;;;5.50;99.90;;;;;;5085307;28;20211;-74
2022/11/14 00:48:14;;;;;;;25.92;12.80;;;5.50;99.90;;;;;;5091231;28;20226;-74
2022/11/14 00:50:59;;;;;;;23.90;12.52;;;5.50;99.90;;;;;;5090715;28;20219;-74
2022/11/14 00:53:45;;;;;;;15.63;11.40;;;5.60;99.90;;;;;;5086787;28;20204;-74
2022/11/14 00:56:31;;;;;;;15.85;11.98;;;5.70;99.90;;;;;;5085162;28;20203;-74
2022/11/14 00:59:18;;;;;;;16.33;11.55;;;5.70;99.90;;;;;;5084720;28;20208;-74
2022/11/14 01:02:03;;;;;;;21.42;12.75;;;5.70;99.90;;;;;;5084705;28;20325;-74
2022/11/14 01:04:49;;;;;;;24.03;13.30;;;5.80;99.90;;;;;;5087204;28;20280;-74
2022/11/14 01:07:35;;;;;;;37.35;12.93;;;5.80;99.90;;;;;;5092078;28;20464;-75
2022/11/14 01:10:21;;;;;;;32.22;13.02;;;5.90;99.90;;;;;;5085749;28;20203;-74
2022/11/14 01:13:06;;;;;;;26.60;13.52;;;5.90;99.90;;;;;;5088689;28;20325;-74
2022/11/14 01:15:54;;;;;;;21.15;14.18;;;5.70;99.90;;;;;;5100020;28;20203;-73
2022/11/14 01:18:40;;;;;;;21.00;14.00;;;5.60;99.90;;;;;;5094943;28;20235;-75
2022/11/14 01:21:26;;;;;;;20.73;13.43;;;5.70;99.90;;;;;;5083610;28;20273;-74
2022/11/14 01:24:11;;;;;;;21.77;12.50;;;5.80;99.90;;;;;;5092631;28;20468;-74
2022/11/14 01:26:57;;;;;;;19.75;12.88;;;5.90;99.90;;;;;;5094079;28;20545;-74
2022/11/14 01:29:43;;;;;;;49.90;15.03;;;5.90;99.90;;;;;;5091404;28;20206;-74
2022/11/14 01:32:30;;;;;;;22.05;13.77;;;5.80;99.90;;;;;;5100888;28;20419;-74
2022/11/14 01:35:16;;;;;;;21.13;13.93;;;5.90;99.90;;;;;;5083455;28;20289;-74
2022/11/14 01:38:01;;;;;;;18.75;13.95;;;5.90;99.90;;;;;;5087939;28;20220;-74
2022/11/14 01:40:47;;;;;;;21.53;13.73;;;5.90;99.90;;;;;;5086839;28;20204;-74
2022/11/14 01:43:33;;;;;;;16.20;11.45;;;6.00;99.90;;;;;;5087808;28;20465;-74
2022/11/14 01:46:23;;;;;;;13.55;11.63;;;6.00;99.90;;;;;;5089072;28;20200;-74
2022/11/14 01:49:17;;;;;;;12.93;11.10;;;5.90;99.90;;;;;;5088209;28;20722;-73
2022/11/14 01:52:06;;;;;;;15.80;10.75;;;5.90;99.90;;;;;;5091903;28;20238;-74
2022/11/14 01:54:55;;;;;;;15.68;12.25;;;5.90;99.90;;;;;;5091432;28;20234;-74
2022/11/14 01:57:49;;;;;;;16.92;11.48;;;5.90;99.90;;;;;;5090262;28;20223;-74
2022/11/14 02:00:34;;;;;;;15.57;11.00;;;5.80;99.90;;;;;;5092794;28;20207;-74
2022/11/14 02:03:20;;;;;;;15.38;10.80;;;5.80;99.90;;;;;;5096455;28;20353;-74
2022/11/14 02:06:10;;;;;;;17.63;10.43;;;5.90;99.90;;;;;;5091379;28;20281;-74
2022/11/14 02:08:57;;;;;;;15.15;11.77;;;5.90;99.90;;;;;;5089778;28;20215;-74
2022/11/14 02:11:45;;;;;;;17.60;12.25;;;5.90;99.90;;;;;;5091435;28;20334;-74
2022/11/14 02:14:32;;;;;;;17.02;11.95;;;5.90;99.90;;;;;;5094586;28;20665;-74
2022/11/14 02:17:19;;;;;;;16.57;12.50;;;6.00;99.90;;;;;;5093154;28;20226;-74
2022/11/14 02:20:18;;;;;;;15.53;13.30;;;5.90;99.90;;;;;;5085777;28;20865;-74
2022/11/14 02:23:04;;;;;;;16.65;12.93;;;5.90;99.90;;;;;;5089225;28;20450;-76
2022/11/14 02:25:50;;;;;;;16.70;13.00;;;5.90;99.90;;;;;;5094850;28;20282;-76
2022/11/14 02:28:36;;;;;;;16.90;12.63;;;5.90;99.90;;;;;;5101896;28;20460;-74
2022/11/14 02:31:21;;;;;;;19.03;13.93;;;6.00;99.90;;;;;;5079293;28;20450;-76
2022/11/14 02:34:07;;;;;;;18.87;13.20;;;5.90;99.90;;;;;;5085468;28;20460;-76
2022/11/14 02:36:54;;;;;;;15.50;12.10;;;6.00;99.90;;;;;;5088276;28;20456;-75
2022/11/14 02:39:39;;;;;;;20.00;12.30;;;6.00;99.90;;;;;;5082406;28;20480;-74
2022/11/14 02:42:25;;;;;;;13.23;11.05;;;5.90;99.90;;;;;;5086562;28;21056;-76
2022/11/14 02:45:12;;;;;;;14.17;11.30;;;6.00;99.90;;;;;;5091771;28;20610;-74
2022/11/14 02:47:58;;;;;;;14.70;12.50;;;6.00;99.90;;;;;;5093846;28;20512;-76
2022/11/14 02:50:43;;;;;;;15.00;12.40;;;6.10;99.90;;;;;;5088354;28;20446;-76
2022/11/14 02:53:30;;;;;;;15.43;12.10;;;6.10;99.90;;;;;;5087192;28;20704;-75
2022/11/14 02:56:15;;;;;;;14.73;12.00;;;6.20;99.90;;;;;;5092376;28;20559;-74
2022/11/14 02:59:01;;;;;;;13.35;11.43;;;6.20;99.90;;;;;;5091839;28;20837;-73
2022/11/14 03:01:47;;;;;;;14.30;11.43;;;6.30;99.90;;;;;;5091320;28;20225;-76
2022/11/14 03:04:32;;;;;;;12.93;11.50;;;6.30;99.90;;;;;;5093837;28;20251;-76
2022/11/14 03:07:18;;;;;;;14.83;12.50;;;6.20;99.90;;;;;;5095058;28;20465;-76
2022/11/14 03:10:06;;;;;;;14.17;11.73;;;6.20;99.90;;;;;;5087666;28;20437;-75
2022/11/14 03:12:53;;;;;;;14.30;11.65;;;6.20;99.90;;;;;;5090364;28;20446;-76
2022/11/14 03:15:39;;;;;;;14.53;11.70;;;6.20;99.90;;;;;;5088440;28;20417;-76
2022/11/14 03:18:24;;;;;;;15.52;13.27;;;6.20;99.90;;;;;;5090366;28;20784;-76
2022/11/14 03:21:12;;;;;;;15.03;11.63;;;6.20;99.90;;;;;;5089968;28;20207;-76
2022/11/14 03:23:58;;;;;;;13.27;11.83;;;6.20;99.90;;;;;;5092863;28;21089;-75
2022/11/14 03:26:45;;;;;;;16.07;12.20;;;6.20;99.90;;;;;;5090476;28;20447;-75
2022/11/14 03:29:30;;;;;;;16.50;11.15;;;6.30;99.90;;;;;;5086663;28;20417;-76
2022/11/14 03:32:16;;;;;;;16.03;12.77;;;6.20;99.90;;;;;;5089050;28;20249;-76
2022/11/14 03:35:02;;;;;;;11.90;10.70;;;6.30;99.90;;;;;;5094121;28;20478;-76
2022/11/14 03:37:47;;;;;;;12.63;11.30;;;6.30;99.90;;;;;;5093199;28;20362;-76
2022/11/14 03:40:33;;;;;;;13.40;12.00;;;6.30;99.90;;;;;;5084490;28;20812;-76
2022/11/14 03:43:21;;;;;;;11.20;10.00;;;6.30;99.90;;;;;;5081335;28;20851;-76
2022/11/14 03:46:06;;;;;;;13.87;11.20;;;6.30;99.90;;;;;;5088253;28;20432;-73
2022/11/14 03:48:52;;;;;;;14.15;11.60;;;6.30;99.90;;;;;;5088264;28;20449;-76
2022/11/14 03:51:37;;;;;;;15.20;11.17;;;6.30;99.90;;;;;;5089349;28;20569;-76
2022/11/14 03:54:22;;;;;;;13.33;11.00;;;6.40;99.90;;;;;;5090457;28;20488;-75
2022/11/14 03:57:08;;;;;;;13.80;11.47;;;6.30;99.90;;;;;;5086579;28;20477;-76
2022/11/14 03:59:55;;;;;;;15.00;12.70;;;6.30;99.90;;;;;;5085675;28;20492;-76
2022/11/14 04:02:41;;;;;;;12.00;10.73;;;6.30;99.90;;;;;;5085284;28;20451;-75
2022/11/14 04:05:26;;;;;;;13.90;11.97;;;6.30;99.90;;;;;;5101720;28;21063;-76
2022/11/14 04:08:12;;;;;;;15.40;13.17;;;6.30;99.90;;;;;;5095145;28;20463;-73
2022/11/14 04:10:58;;;;;;;13.83;12.07;;;6.40;99.90;;;;;;5088375;28;20498;-76
2022/11/14 04:13:43;;;;;;;16.00;12.97;;;6.40;99.90;;;;;;5101775;28;20445;-76
2022/11/14 04:16:30;;;;;;;13.33;11.47;;;6.40;99.90;;;;;;5086724;28;20450;-75
2022/11/14 04:19:16;;;;;;;14.20;11.67;;;6.40;99.90;;;;;;5082558;28;21059;-76
2022/11/14 04:22:01;;;;;;;12.82;10.70;;;6.50;99.90;;;;;;5096008;28;20952;-76
2022/11/14 04:24:47;;;;;;;12.90;10.80;;;6.40;99.90;;;;;;5096605;28;20215;-76
2022/11/14 04:27:32;;;;;;;14.43;12.83;;;6.40;99.90;;;;;;5087927;28;20448;-76
2022/11/14 04:30:18;;;;;;;14.73;11.77;;;6.30;99.90;;;;;;5087075;28;20492;-76
2022/11/14 04:33:05;;;;;;;13.60;11.50;;;6.30;99.90;;;;;;5090630;28;20438;-75
2022/11/14 04:35:51;;;;;;;16.93;11.63;;;6.30;99.90;;;;;;5087158;28;20412;-76
2022/11/14 04:38:38;;;;;;;12.03;10.47;;;6.30;99.90;;;;;;5086581;28;20818;-75
2022/11/14 04:41:24;;;;;;;14.57;11.90;;;6.40;99.90;;;;;;5104508;28;20527;-76
2022/11/14 04:44:09;;;;;;;13.77;11.73;;;6.40;99.90;;;;;;5088149;28;20460;-73
2022/11/14 04:46:56;;;;;;;17.20;11.02;;;6.50;99.90;;;;;;5088701;28;20462;-75
2022/11/14 04:49:42;;;;;;;16.90;12.07;;;6.50;99.90;;;;;;5082461;28;20212;-76
2022/11/14 04:52:28;;;;;;;15.23;12.10;;;6.50;99.90;;;;;;5081272;28;21080;-76
2022/11/14 04:55:13;;;;;;;17.60;11.57;;;6.50;99.90;;;;;;5087434;28;20426;-76
2022/11/14 04:57:59;;;;;;;14.57;12.10;;;6.50;99.90;;;;;;5084466;28;21031;-76
2022/11/14 05:00:45;;;;;;;15.07;11.40;;;6.60;99.90;;;;;;5084508;28;21179;-75
2022/11/14 05:03:30;;;;;;;17.07;10.67;;;6.50;99.90;;;;;;5082115;28;20820;-76
2022/11/14 05:06:17;;;;;;;14.50;12.00;;;6.60;99.90;;;;;;5078539;28;20429;-75
2022/11/14 05:09:03;;;;;;;14.02;11.88;;;6.60;99.90;;;;;;5079620;28;20413;-74
2022/11/14 05:11:48;;;;;;;17.60;14.75;;;6.60;99.90;;;;;;5087498;28;20204;-76
2022/11/14 05:14:34;;;;;;;15.87;14.20;;;6.60;99.90;;;;;;5084243;28;20281;-76
2022/11/14 05:17:19;;;;;;;12.93;11.57;;;6.60;99.90;;;;;;5084835;28;20510;-75
2022/11/14 05:20:06;;;;;;;14.83;11.60;;;6.60;99.90;;;;;;5088000;28;20428;-76
2022/11/14 05:22:55;;;;;;;15.80;13.17;;;6.70;99.90;;;;;;5093404;28;20453;-76
2022/11/14 05:25:40;;;;;;;16.37;12.00;;;6.80;99.90;;;;;;5094656;28;20414;-75
2022/11/14 05:28:26;;;;;;;14.30;11.70;;;6.80;99.90;;;;;;5081698;28;20485;-74
2022/11/14 05:31:16;;;;;;;16.07;12.50;;;6.80;99.90;;;;;;5091282;28;20445;-76
2022/11/14 05:34:02;;;;;;;16.73;12.97;;;6.80;99.90;;;;;;5086272;28;20803;-74
2022/11/14 05:36:47;;;;;;;18.60;14.97;;;6.90;99.90;;;;;;5092351;28;20503;-76
2022/11/14 05:39:34;;;;;;;15.90;13.00;;;6.80;99.90;;;;;;5089331;28;21218;-76
2022/11/14 05:42:20;;;;;;;18.73;14.43;;;6.70;99.90;;;;;;5093750;28;20427;-75
2022/11/14 05:45:06;;;;;;;16.00;12.30;;;6.70;99.90;;;;;;5087191;28;20488;-76
2022/11/14 05:47:53;;;;;;;15.83;12.63;;;6.70;99.90;;;;;;5083012;28;20484;-75
2022/11/14 05:50:39;;;;;;;18.40;13.47;;;6.80;99.90;;;;;;5092231;28;20449;-75
2022/11/14 05:53:25;;;;;;;17.43;12.50;;;6.90;99.90;;;;;;5095709;28;20448;-76
2022/11/14 05:56:13;;;;;;;24.07;13.73;;;6.80;99.90;;;;;;5092694;28;21025;-76
2022/11/14 05:58:58;;;;;;;20.03;13.80;;;6.80;99.90;;;;;;5085184;28;20812;-75
2022/11/14 06:01:44;;;;;;;18.07;14.20;;;6.80;99.90;;;;;;5094012;28;20443;-76
2022/11/14 06:04:30;;;;;;;17.00;13.50;;;6.90;99.90;;;;;;5088859;28;20993;-76
2022/11/14 06:07:15;;;;;;;19.83;15.20;;;6.90;99.90;;;;;;5085451;28;20573;-74
2022/11/14 06:10:01;;;;;;;20.57;13.90;;;6.80;99.90;;;;;;5092987;28;20442;-76
2022/11/14 06:12:49;;;;;;;19.20;14.80;;;6.70;99.90;;;;;;5095106;28;20588;-76
2022/11/14 06:15:34;;;;;;;22.48;14.90;;;6.60;99.90;;;;;;5084249;28;20199;-76
2022/11/14 06:18:20;;;;;;;21.73;15.70;;;6.50;99.90;;;;;;5082973;28;20215;-76
2022/11/14 06:21:08;;;;;;;26.23;17.02;;;6.50;99.90;;;;;;5097241;28;20441;-76
2022/11/14 06:23:54;;;;;;;24.67;16.27;;;6.60;99.90;;;;;;5093974;28;20226;-76
2022/11/14 06:26:39;;;;;;;23.13;16.17;;;6.40;99.90;;;;;;5089423;28;20239;-75
2022/11/14 06:29:26;;;;;;;23.60;16.33;;;6.30;99.90;;;;;;5094499;28;20230;-74
2022/11/14 06:32:12;;;;;;;21.03;16.07;;;6.20;99.90;;;;;;5084749;28;20195;-75
2022/11/14 06:34:57;;;;;;;20.53;14.43;;;6.10;99.90;;;;;;5096694;28;20441;-75
2022/11/14 06:37:43;;;;;;;20.73;16.37;;;6.10;99.90;;;;;;5085740;28;20973;-76
2022/11/14 06:40:28;;;;;;;24.03;17.60;;;6.00;99.90;;;;;;5097200;28;20449;-76
2022/11/14 06:43:14;;;;;;;33.83;20.83;;;5.90;99.90;;;;;;5092072;28;20583;-74
2022/11/14 06:46:01;;;;;;;38.80;27.77;;;5.80;99.90;;;;;;5091016;28;20429;-76
2022/11/14 06:48:47;;;;;;;30.98;22.77;;;5.70;99.90;;;;;;5087988;28;20408;-76
2022/11/14 06:51:33;;;;;;;26.38;19.33;;;5.70;99.90;;;;;;5093480;28;20203;-76
2022/11/14 06:54:19;;;;;;;25.55;18.92;;;5.70;99.90;;;;;;5096824;28;20662;-76
2022/11/14 06:57:04;;;;;;;24.63;19.13;;;5.70;99.90;;;;;;5085178;28;20230;-76
2022/11/14 06:59:50;;;;;;;21.73;16.15;;;5.70;99.90;;;;;;5092259;28;20446;-76
2022/11/14 07:02:38;;;;;;;21.80;15.93;;;5.80;99.90;;;;;;5100237;28;20207;-76
2022/11/14 07:05:23;;;;;;;22.83;16.83;;;5.80;99.90;;;;;;5098190;28;20570;-76
2022/11/14 07:08:09;;;;;;;19.97;15.37;;;5.80;99.90;;;;;;5088088;28;20724;-76
2022/11/14 07:11:00;;;;;;;21.42;16.10;;;5.70;99.90;;;;;;5099374;28;20433;-74
2022/11/14 07:13:46;;;;;;;22.42;16.75;;;5.60;99.90;;;;;;5090773;28;20212;-76
2022/11/14 07:16:34;;;;;;;25.08;17.73;;;5.60;99.90;;;;;;5089206;28;20709;-76
2022/11/14 07:19:21;;;;;;;24.03;16.50;;;5.60;99.90;;;;;;5097729;28;20195;-75
2022/11/14 07:22:06;;;;;;;31.40;19.83;;;5.60;99.90;;;;;;5095455;28;20502;-76
2022/11/14 07:24:52;;;;;;;29.67;20.53;;;5.70;99.90;;;;;;5093682;28;20723;-76
2022/11/14 07:27:38;;;;;;;28.57;21.60;;;5.80;99.90;;;;;;5086793;28;20500;-76
2022/11/14 07:30:23;;;;;;;32.93;23.47;;;5.80;99.90;;;;;;5088301;28;20438;-75
2022/11/14 07:33:10;;;;;;;27.02;20.25;;;5.80;99.90;;;;;;5098602;28;20493;-76
2022/11/14 07:35:57;;;;;;;29.48;20.02;;;5.80;99.90;;;;;;5101792;28;20200;-75
2022/11/14 07:38:42;;;;;;;28.07;19.50;;;5.70;99.90;;;;;;5090148;28;20579;-75
2022/11/14 07:41:28;;;;;;;27.93;19.87;;;5.80;99.90;;;;;;5090924;28;20800;-76
2022/11/14 07:44:13;;;;;;;38.50;23.83;;;5.90;99.90;;;;;;5092593;28;20555;-76
2022/11/14 07:46:59;;;;;;;30.73;21.50;;;6.00;99.90;;;;;;5089694;28;20478;-76
2022/11/14 07:49:44;;;;;;;30.77;19.57;;;6.00;99.90;;;;;;5088875;28;21600;-76
2022/11/14 07:52:32;;;;;;;27.37;19.50;;;6.20;99.90;;;;;;5088717;28;20448;-75
2022/11/14 07:55:18;;;;;;;30.47;21.37;;;6.30;99.90;;;;;;5098083;28;20794;-76
2022/11/14 07:58:03;;;;;;;26.38;19.23;;;6.40;99.90;;;;;;5081931;28;20570;-75
2022/11/14 08:00:49;;;;;;;28.48;17.88;;;6.50;99.90;;;;;;5092365;28;20204;-76
2022/11/14 08:03:34;;;;;;;26.92;19.83;;;6.60;99.90;;;;;;5101825;28;20312;-75
2022/11/14 08:06:20;;;;;;;28.13;19.60;;;6.80;99.90;;;;;;5076077;28;20223;-75
2022/11/14 08:09:06;;;;;;;27.53;17.53;;;6.90;99.90;;;;;;5091300;28;20199;-75
2022/11/14 08:11:52;;;;;;;28.87;19.40;;;7.00;99.90;;;;;;5093482;28;20489;-75
2022/11/14 08:14:38;;;;;;;24.40;18.30;;;7.00;99.90;;;;;;5088943;28;20839;-73
2022/11/14 08:17:23;;;;;;;26.27;17.40;;;7.10;99.90;;;;;;5085079;28;20493;-75
2022/11/14 08:20:10;;;;;;;25.30;17.63;;;7.10;99.90;;;;;;5096060;28;20450;-74
2022/11/14 08:23:02;;;;;;;26.30;18.03;;;7.10;99.90;;;;;;5091232;28;20208;-73
2022/11/14 08:25:49;;;;;;;24.20;16.80;;;7.20;99.90;;;;;;5079473;28;20493;-73
2022/11/14 08:28:34;;;;;;;20.83;15.33;;;7.30;99.90;;;;;;5085896;28;20541;-73
2022/11/14 08:31:21;;;;;;;24.43;16.77;;;7.30;99.90;;;;;;5087118;28;20433;-73
2022/11/14 08:34:07;;;;;;;21.30;16.23;;;7.40;99.90;;;;;;5086185;28;20959;-73
2022/11/14 08:36:52;;;;;;;24.60;17.50;;;7.50;99.90;;;;;;5082557;28;20432;-74
2022/11/14 08:39:38;;;;;;;21.80;15.47;;;7.50;99.90;;;;;;5091223;28;20358;-73
2022/11/14 08:42:25;;;;;;;20.27;16.57;;;7.60;99.90;;;;;;5090487;28;20551;-74
2022/11/14 08:45:10;;;;;;;22.53;14.30;;;7.60;99.90;;;;;;5095629;28;20849;-74
2022/11/14 08:47:56;;;;;;;23.70;16.03;;;7.70;99.90;;;;;;5084112;28;20432;-73
2022/11/14 08:50:42;;;;;;;23.13;15.23;;;7.70;99.90;;;;;;5090260;28;20445;-73
2022/11/14 08:53:27;;;;;;;22.30;15.57;;;7.80;99.90;;;;;;5087784;28;20909;-73
2022/11/14 08:56:13;;;;;;;19.30;14.30;;;7.80;99.90;;;;;;5079920;28;20498;-74
2022/11/14 08:59:03;;;;;;;21.17;14.43;;;7.90;99.90;;;;;;5086550;28;20468;-74
2022/11/14 09:01:49;;;;;;;20.80;14.10;;;8.00;99.90;;;;;;5088466;28;20465;-74
2022/11/14 09:04:34;;;;;;;21.73;15.27;;;8.20;99.90;;;;;;5087858;28;20839;-74
2022/11/14 09:07:20;;;;;;;20.60;14.17;;;8.30;99.90;;;;;;5083242;28;20456;-74
2022/11/14 09:10:07;;;;;;;16.00;12.00;;;8.40;99.90;;;;;;5084711;28;20570;-74
2022/11/14 09:12:56;;;;;;;18.77;12.67;;;8.50;99.90;;;;;;5088349;28;20442;-74
2022/11/14 09:15:44;;;;;;;15.63;11.17;;;8.50;99.90;;;;;;5085244;28;20438;-72
2022/11/14 09:18:30;;;;;;;13.50;9.80;;;8.60;99.90;;;;;;5089725;28;20564;-74
2022/11/14 09:21:15;;;;;;;17.77;11.77;;;8.70;99.90;;;;;;5090895;28;20501;-74
2022/11/14 09:24:01;;;;;;;21.10;11.90;;;8.90;99.90;;;;;;5093758;28;20499;-74
2022/11/14 09:26:48;;;;;;;17.50;11.43;;;8.90;99.90;;;;;;5079445;28;20496;-73
2022/11/14 09:29:34;;;;;;;17.53;11.73;;;9.00;99.90;;;;;;5088577;28;20929;-73
2022/11/14 09:32:21;;;;;;;15.53;11.27;;;9.10;99.90;;;;;;5081074;28;20424;-74
2022/11/14 09:35:07;;;;;;;16.33;10.20;;;9.10;99.90;;;;;;5080122;28;20414;-74
2022/11/14 09:37:59;;;;;;;13.67;10.37;;;9.10;99.90;;;;;;5093739;28;20492;-74
2022/11/14 09:40:57;;;;;;;14.93;9.70;;;9.20;99.90;;;;;;5102049;28;20530;-72
2022/11/14 09:44:05;;;;;;;14.57;9.20;;;9.30;99.90;;;;;;5090919;28;20438;-73
2022/11/14 09:46:58;;;;;;;14.13;11.07;;;9.30;99.90;;;;;;5081458;28;20440;-74
2022/11/14 09:49:46;;;;;;;14.83;9.90;;;9.30;99.90;;;;;;5086897;28;20797;-73
2022/11/14 09:52:36;;;;;;;13.20;8.27;;;9.40;99.90;;;;;;5085016;28;20437;-73
2022/11/14 09:55:23;;;;;;;10.63;7.70;;;9.50;99.90;;;;;;5079470;28;20416;-74
2022/11/14 09:58:15;;;;;;;14.00;10.50;;;9.60;99.90;;;;;;5086321;28;20596;-74
2022/11/14 10:01:05;;;;;;;34.63;26.73;;;9.70;99.90;;;;;;5088272;28;20449;-73
2022/11/14 10:03:58;;;;;;;11.70;7.60;;;9.70;99.90;;;;;;5101855;28;20430;-74
2022/11/14 10:06:55;;;;;;;9.27;7.03;;;9.80;99.90;;;;;;5107027;28;20477;-73
2022/11/14 10:09:53;;;;;;;11.10;7.03;;;9.80;99.90;;;;;;5100913;28;20436;-75
2022/11/14 10:12:45;;;;;;;18.00;10.70;;;9.90;99.90;;;;;;5103799;28;20429;-75
2022/11/14 10:15:37;;;;;;;12.53;9.13;;;9.90;99.90;;;;;;5091229;28;20424;-74
2022/11/14 10:18:38;;;;;;;8.07;5.83;;;9.90;99.90;;;;;;5097075;28;20445;-73
2022/11/14 10:21:56;;;;;;;19.13;14.20;;;9.90;99.90;;;;;;5100814;28;20433;-73
2022/11/14 10:24:58;;;;;;;7.50;5.80;;;10.00;99.90;;;;;;5092164;28;20421;-74
2022/11/14 10:27:54;;;;;;;8.10;5.20;;;10.00;99.90;;;;;;5093712;28;20453;-74
2022/11/14 10:30:45;;;;;;;5.77;4.67;;;10.00;99.90;;;;;;5103436;28;20432;-74
2022/11/14 10:33:39;;;;;;;8.73;4.43;;;10.00;99.90;;;;;;5085233;28;20536;-73
2022/11/14 10:36:41;;;;;;;6.90;4.87;;;10.00;99.90;;;;;;5084538;28;20424;-73
2022/11/14 10:39:35;;;;;;;11.27;7.97;;;10.10;99.90;;;;;;5097256;28;20570;-73
2022/11/14 10:42:29;;;;;;;10.53;4.57;;;10.20;99.90;;;;;;5093389;28;20618;-74
2022/11/14 10:45:23;;;;;;;10.10;5.60;;;10.20;99.90;;;;;;5084699;28;20606;-74
2022/11/14 10:48:13;;;;;;;11.40;7.07;;;10.20;99.90;;;;;;5102401;28;20509;-74
2022/11/14 10:51:01;;;;;;;7.17;4.20;;;10.20;99.90;;;;;;5090602;28;21095;-74
2022/11/14 10:53:53;;;;;;;11.27;5.10;;;10.20;99.90;;;;;;5085882;28;20445;-74
2022/11/14 10:56:47;;;;;;;8.77;4.27;;;10.30;99.90;;;;;;5086894;28;20539;-74
2022/11/14 10:59:33;;;;;;;7.93;3.80;;;10.30;99.90;;;;;;5084950;28;20428;-74
2022/11/14 11:02:18;;;;;;;4.93;3.23;;;10.30;99.90;;;;;;5094498;28;21002;-74
2022/11/14 11:05:15;;;;;;;4.83;3.20;;;10.40;99.90;;;;;;5081741;28;20432;-73
2022/11/14 11:14:17;;;;;;;5.30;3.07;;;10.60;99.90;;;;;;5083101;28;20459;-73
2022/11/14 11:17:24;;;;;;;4.23;3.17;;;10.70;99.90;;;;;;5089355;28;21006;-74
2022/11/14 11:20:27;;;;;;;4.53;3.20;;;10.80;99.90;;;;;;5090546;28;20419;-72
2022/11/14 11:23:20;;;;;;;4.17;3.00;;;11.00;99.90;;;;;;5086984;28;20491;-73
2022/11/14 11:26:08;;;;;;;6.23;4.57;;;11.20;99.90;;;;;;5089209;28;20477;-74
2022/11/14 11:29:07;;;;;;;4.10;3.13;;;11.20;99.90;;;;;;5102953;28;20396;-74
2022/11/14 11:31:56;;;;;;;5.67;3.70;;;11.30;99.90;;;;;;5105012;28;20425;-74
2022/11/14 11:34:42;;;;;;;3.73;3.07;;;11.30;99.90;;;;;;5099910;28;20454;-74
2022/11/14 11:37:31;;;;;;;4.90;3.57;;;11.30;99.90;;;;;;5109204;28;20443;-74
2022/11/14 11:40:21;;;;;;;4.23;2.60;;;11.30;99.90;;;;;;5098533;28;20424;-74
2022/11/14 11:43:15;;;;;;;3.90;3.03;;;11.30;99.90;;;;;;5101847;28;20576;-74
2022/11/14 11:46:06;;;;;;;5.20;2.90;;;11.30;99.90;;;;;;5093037;28;20624;-74
2022/11/14 11:49:00;;;;;;;5.77;3.10;;;11.30;99.90;;;;;;5111423;28;20429;-74
2022/11/14 11:51:47;;;;;;;6.37;2.80;;;11.30;99.90;;;;;;5111555;28;20417;-74
2022/11/14 11:54:42;;;;;;;5.30;2.87;;;11.30;99.90;;;;;;5093627;28;20498;-74
2022/11/14 11:57:33;;;;;;;5.30;2.90;;;11.30;99.90;;;;;;5104075;28;20972;-74
2022/11/14 12:00:21;;;;;;;3.10;2.20;;;11.30;99.90;;;;;;5101424;28;20405;-74
2022/11/14 12:03:12;;;;;;;4.70;3.03;;;11.40;99.90;;;;;;5080379;28;20421;-75
2022/11/14 12:06:07;;;;;;;3.43;2.57;;;11.40;99.90;;;;;;5103244;28;20469;-74
2022/11/14 12:09:06;;;;;;;3.00;2.33;;;11.30;99.90;;;;;;5100328;28;20393;-74
2022/11/14 12:11:57;;;;;;;3.50;2.50;;;11.40;99.90;;;;;;5103108;28;20397;-74
2022/11/14 12:14:57;;;;;;;4.10;3.30;;;11.40;99.90;;;;;;5088582;28;20833;-74
2022/11/14 12:18:06;;;;;;;3.27;2.73;;;11.30;99.90;;;;;;5097687;28;20423;-74
2022/11/14 12:21:05;;;;;;;5.93;3.00;;;11.30;99.90;;;;;;5104024;28;20471;-74
2022/11/14 12:24:22;;;;;;;3.57;2.87;;;11.30;99.90;;;;;;5091733;28;20417;-74
2022/11/14 12:27:24;;;;;;;3.80;2.80;;;11.30;99.90;;;;;;5101939;28;20477;-74
2022/11/14 12:30:17;;;;;;;9.53;5.43;;;11.30;99.90;;;;;;5090932;28;20395;-74
2022/11/14 12:33:07;;;;;;;5.40;2.53;;;11.30;99.90;;;;;;5093381;28;20485;-74
2022/11/14 12:35:56;;;;;;;4.17;3.00;;;11.20;99.90;;;;;;5094707;28;20818;-74
2022/11/14 12:38:46;;;;;;;5.60;3.07;;;11.20;99.90;;;;;;5103901;28;20423;-74
2022/11/14 12:41:36;;;;;;;4.53;3.30;;;11.20;99.90;;;;;;5096163;28;20416;-74
2022/11/14 12:44:36;;;;;;;4.77;2.80;;;11.20;99.90;;;;;;5083119;28;20419;-74
2022/11/14 12:47:23;;;;;;;4.53;3.40;;;11.20;99.90;;;;;;5103640;28;20740;-74
2022/11/14 12:50:28;;;;;;;3.63;2.83;;;11.20;99.90;;;;;;5087027;28;20502;-74
2022/11/14 12:53:41;;;;;;;5.03;3.27;;;11.20;99.90;;;;;;5085561;28;20453;-74
2022/11/14 12:56:55;;;;;;;5.33;2.97;;;11.20;99.90;;;;;;5105053;28;20595;-73
2022/11/14 12:59:54;;;;;;;4.70;2.93;;;11.20;99.90;;;;;;5095553;28;20433;-74
2022/11/14 13:03:05;;;;;;;8.37;3.20;;;11.20;99.90;;;;;;5088008;28;20530;-74
2022/11/14 13:05:57;;;;;;;6.80;3.13;;;11.20;99.90;;;;;;5092741;28;21091;-74
2022/11/14 13:09:06;;;;;;;3.60;2.77;;;11.20;99.90;;;;;;5091579;28;20435;-74
2022/11/14 13:25:09;;;;;;;7.10;3.27;;;11.20;99.90;;;;;;5086528;28;20470;-74
2022/11/14 13:27:59;;;;;;;3.97;2.87;;;11.20;99.90;;;;;;5085600;28;20477;-74
2022/11/14 13:31:07;;;;;;;5.90;3.30;;;11.30;99.90;;;;;;5097473;28;20550;-74
2022/11/14 13:33:57;;;;;;;4.57;2.80;;;11.30;99.90;;;;;;5083377;28;20442;-74
2022/11/14 13:36:51;;;;;;;4.63;2.83;;;11.30;99.90;;;;;;5087096;28;20528;-73
2022/11/14 13:39:44;;;;;;;5.20;2.57;;;11.40;99.90;;;;;;5088745;28;20463;-74
2022/11/14 13:42:47;;;;;;;10.70;5.00;;;11.40;99.90;;;;;;5088118;28;20829;-74
2022/11/14 13:45:50;;;;;;;9.83;5.97;;;11.50;99.90;;;;;;5094684;28;20460;-74
2022/11/14 13:49:03;;;;;;;9.67;3.77;;;11.50;99.90;;;;;;5093926;28;20447;-74
2022/11/14 13:51:52;;;;;;;6.93;3.20;;;11.50;99.90;;;;;;5094448;28;20458;-74
2022/11/14 13:54:44;;;;;;;4.27;2.93;;;11.60;99.90;;;;;;5096614;28;20533;-74
2022/11/14 13:57:41;;;;;;;5.47;2.93;;;11.60;99.90;;;;;;5093519;28;20545;-74
2022/11/14 14:00:30;;;;;;;4.23;3.20;;;11.60;99.90;;;;;;5086555;28;20446;-74
2022/11/14 14:03:45;;;;;;;4.13;2.83;;;11.70;99.90;;;;;;5084104;28;20939;-74
2022/11/14 14:06:42;;;;;;;5.20;3.20;;;11.70;99.90;;;;;;5088596;28;20452;-74
2022/11/14 14:09:37;;;;;;;12.23;4.90;;;11.80;99.90;;;;;;5090991;28;20439;-74
2022/11/14 14:12:42;;;;;;;4.50;2.90;;;11.80;99.90;;;;;;5081021;28;20797;-74
2022/11/14 14:15:34;;;;;;;6.93;3.33;;;11.90;99.90;;;;;;5088989;28;20798;-74
2022/11/14 14:18:28;;;;;;;5.80;3.73;;;11.80;99.90;;;;;;5093918;28;20811;-74
2022/11/14 14:21:26;;;;;;;8.33;4.77;;;11.80;99.90;;;;;;5098902;28;20420;-74
2022/11/14 14:24:24;;;;;;;13.80;5.80;;;11.80;99.90;;;;;;5095540;28;20450;-74
2022/11/14 14:27:21;;;;;;;8.73;4.87;;;11.80;99.90;;;;;;5094330;28;20452;-74
2022/11/14 14:30:10;;;;;;;8.90;3.60;;;11.90;99.90;;;;;;5095108;28;20438;-73
2022/11/14 14:33:04;;;;;;;12.00;6.77;;;11.90;99.90;;;;;;5087380;28;20420;-74
2022/11/14 14:35:53;;;;;;;5.73;4.30;;;11.90;99.90;;;;;;5095560;28;20408;-73
2022/11/14 14:38:38;;;;;;;4.77;3.80;;;11.90;99.90;;;;;;5094052;28;20528;-74
2022/11/14 14:41:25;;;;;;;5.00;3.13;;;11.90;99.90;;;;;;5095714;28;20462;-74
2022/11/14 14:44:21;;;;;;;4.87;3.10;;;11.90;99.90;;;;;;5090268;28;20412;-74
2022/11/14 14:47:15;;;;;;;3.90;2.70;;;11.90;99.90;;;;;;5097666;28;20472;-74
2022/11/14 14:50:03;;;;;;;5.40;2.73;;;11.90;99.90;;;;;;5099829;28;20556;-74
2022/11/14 14:52:58;;;;;;;4.10;3.23;;;11.90;99.90;;;;;;5086369;28;20440;-74